createdAt,value
2018-08-03T08:10:07.904Z,292.50
2018-08-03T08:11:06.803Z,286.88
2018-08-03T08:12:59.529Z,275.63
2018-08-03T08:13:59.185Z,275.63
2018-08-03T08:15:57.561Z,270.00
2018-08-03T08:16:55.489Z,264.38
2018-08-03T08:18:48.226Z,270.00
2018-08-03T08:19:48.754Z,270.00
2018-08-03T08:21:41.624Z,264.38
2018-08-03T08:22:41.627Z,264.38
2018-08-03T08:24:40.820Z,264.38
2018-08-03T08:25:38.487Z,264.38
2018-08-03T08:27:28.186Z,258.75
2018-08-03T08:28:28.175Z,258.75
2018-08-03T08:30:21.964Z,258.75
2018-08-03T08:31:21.916Z,258.75
2018-08-03T08:33:14.713Z,258.75
2018-08-03T08:34:14.489Z,264.38
2018-08-03T08:36:07.475Z,264.38
2018-08-03T08:37:07.475Z,264.38
2018-08-03T08:39:00.317Z,264.38
2018-08-03T08:40:00.304Z,264.38
2018-08-03T08:41:53.854Z,264.38
2018-08-03T08:42:53.719Z,264.38
2018-08-03T08:44:46.673Z,258.75
2018-08-03T08:45:46.617Z,258.75
2018-08-03T08:47:39.720Z,258.75
2018-08-03T08:48:39.512Z,258.75
2018-08-03T08:50:32.921Z,258.75
2018-08-03T08:51:32.916Z,253.13
2018-08-03T08:53:25.840Z,253.13
2018-08-03T08:54:25.836Z,253.13
2018-08-03T08:56:18.743Z,247.50
2018-08-03T08:57:18.737Z,247.50
2018-08-03T08:59:11.711Z,247.50
2018-08-03T09:00:11.659Z,241.88
2018-08-03T09:02:04.593Z,241.88
2018-08-03T09:03:04.601Z,241.88
2018-08-03T09:04:57.499Z,236.25
2018-08-03T09:05:58.085Z,236.25
2018-08-03T09:07:50.743Z,236.25
2018-08-03T09:08:50.413Z,236.25
2018-08-03T09:10:43.804Z,230.63
2018-08-03T09:11:43.784Z,230.63
2018-08-03T09:13:37.239Z,230.63
2018-08-03T09:14:37.202Z,230.63
2018-08-03T09:16:30.114Z,230.63
2018-08-03T09:17:30.105Z,230.63
2018-08-03T09:19:23.507Z,225.00
2018-08-03T09:20:23.499Z,225.00
2018-08-03T09:22:16.409Z,225.00
2018-08-03T09:23:16.412Z,219.38
2018-08-03T09:25:09.336Z,219.38
2018-08-03T09:26:09.878Z,219.38
2018-08-03T09:28:02.228Z,213.75
2018-08-03T09:29:02.215Z,213.75
2018-08-03T09:30:55.666Z,208.13
2018-08-03T09:31:55.617Z,208.13
2018-08-03T09:33:49.332Z,208.13
2018-08-03T09:34:48.985Z,202.50
2018-08-03T09:36:41.932Z,202.50
2018-08-03T09:37:41.898Z,202.50
2018-08-03T09:39:36.336Z,196.88
2018-08-03T09:40:35.305Z,196.88
2018-08-03T09:42:28.225Z,196.88
2018-08-03T09:43:28.174Z,196.88
2018-08-03T09:45:21.185Z,196.88
2018-08-03T09:46:21.083Z,191.25
2018-08-03T09:51:24.508Z,191.25
2018-08-03T09:52:24.514Z,191.25
2018-08-03T09:54:17.407Z,185.63
2018-08-03T09:55:17.451Z,185.63
2018-08-03T09:57:10.807Z,185.63
2018-08-03T09:58:10.793Z,185.63
2018-08-03T10:00:03.705Z,180.00
2018-08-03T10:01:03.701Z,180.00
2018-08-03T10:02:57.121Z,180.00
2018-08-03T10:03:57.081Z,180.00
2018-08-03T10:05:50.596Z,180.00
2018-08-03T10:06:50.504Z,174.38
2018-08-03T10:08:43.400Z,174.38
2018-08-03T10:09:43.388Z,174.38
2018-08-03T10:11:36.356Z,174.38
2018-08-03T10:12:36.272Z,168.75
2018-08-03T10:14:29.711Z,168.75
2018-08-03T10:15:29.726Z,168.75
2018-08-03T10:17:22.572Z,163.13
2018-08-03T10:18:22.561Z,163.13
2018-08-03T10:20:15.990Z,163.13
2018-08-03T10:21:15.959Z,163.13
2018-08-03T10:23:08.892Z,168.75
2018-08-03T10:24:08.868Z,163.13
2018-08-03T10:26:02.296Z,157.50
2018-08-03T10:27:02.251Z,157.50
2018-08-03T10:28:55.665Z,157.50
2018-08-03T10:29:55.661Z,157.50
2018-08-03T10:31:49.147Z,157.50
2018-08-03T10:32:49.217Z,157.50
2018-08-03T10:34:42.453Z,157.50
2018-08-03T10:35:42.445Z,157.50
2018-08-03T10:37:35.877Z,151.88
2018-08-03T10:38:35.835Z,151.88
2018-08-03T10:40:29.279Z,151.88
2018-08-03T10:41:29.235Z,157.50
2018-08-03T10:43:22.148Z,146.25
2018-08-03T10:44:22.139Z,146.25
2018-08-03T10:46:15.046Z,146.25
2018-08-03T10:47:15.092Z,146.25
2018-08-03T10:49:08.446Z,146.25
2018-08-03T10:50:08.424Z,140.63
2018-08-03T10:52:01.851Z,140.63
2018-08-03T10:53:01.839Z,140.63
2018-08-03T10:54:54.751Z,140.63
2018-08-03T10:55:54.737Z,140.63
2018-08-03T10:57:48.215Z,140.63
2018-08-03T10:58:47.637Z,140.63
2018-08-03T11:01:32.720Z,140.63
2018-08-03T11:02:32.668Z,140.63
2018-08-03T11:04:25.583Z,140.63
2018-08-03T11:05:25.568Z,140.63
2018-08-03T11:07:19.390Z,140.63
2018-08-03T11:08:19.306Z,140.63
2018-08-03T11:10:12.189Z,135.00
2018-08-03T11:11:12.411Z,135.00
2018-08-03T11:13:05.136Z,135.00
2018-08-03T11:14:04.911Z,135.00
2018-08-03T11:15:57.976Z,135.00
2018-08-03T11:16:57.710Z,135.00
2018-08-03T11:18:50.684Z,135.00
2018-08-03T11:19:50.908Z,135.00
2018-08-03T11:21:44.341Z,129.38
2018-08-03T11:22:44.320Z,129.38
2018-08-03T11:24:37.220Z,129.38
2018-08-03T11:25:37.260Z,129.38
2018-08-03T11:27:31.239Z,129.38
2018-08-03T11:28:30.696Z,129.38
2018-08-03T11:30:25.092Z,129.38
2018-08-03T11:31:24.819Z,129.38
2018-08-03T11:33:18.211Z,129.38
2018-08-03T11:34:18.567Z,129.38
2018-08-03T11:36:12.066Z,129.38
2018-08-03T11:37:11.530Z,129.38
2018-08-03T11:39:04.488Z,129.38
2018-08-03T11:40:04.602Z,129.38
2018-08-03T11:41:57.837Z,123.75
2018-08-03T11:42:57.837Z,123.75
2018-08-03T11:44:51.154Z,123.75
2018-08-03T11:45:50.809Z,123.75
2018-08-03T11:47:44.200Z,123.75
2018-08-03T11:48:44.138Z,123.75
2018-08-03T11:50:40.986Z,123.75
2018-08-03T11:51:37.881Z,123.75
2018-08-03T11:53:30.603Z,118.13
2018-08-03T11:54:30.414Z,118.13
2018-08-03T11:56:24.163Z,118.13
2018-08-03T11:57:23.866Z,118.13
2018-08-03T11:59:17.131Z,118.13
2018-08-03T12:00:16.715Z,118.13
2018-08-03T12:02:10.265Z,118.13
2018-08-03T12:06:08.072Z,118.13
2018-08-03T12:08:01.248Z,118.13
2018-08-03T12:09:01.216Z,118.13
2018-08-03T12:10:54.624Z,118.13
2018-08-03T12:11:54.604Z,118.13
2018-08-03T12:13:48.164Z,118.13
2018-08-03T12:14:47.997Z,118.13
2018-08-03T12:16:40.919Z,118.13
2018-08-03T12:17:40.903Z,118.13
2018-08-03T12:19:34.342Z,118.13
2018-08-03T12:20:34.597Z,118.13
2018-08-03T12:22:28.051Z,118.13
2018-08-03T12:23:27.717Z,118.13
2018-08-03T12:25:21.374Z,118.13
2018-08-03T12:26:21.105Z,118.13
2018-08-03T12:28:14.159Z,112.50
2018-08-03T12:29:14.028Z,112.50
2018-08-03T12:31:07.721Z,112.50
2018-08-03T12:32:06.924Z,112.50
2018-08-03T12:34:00.606Z,112.50
2018-08-03T12:35:00.311Z,112.50
2018-08-03T12:36:53.383Z,112.50
2018-08-03T12:37:53.204Z,112.50
2018-08-03T12:39:46.606Z,112.50
2018-08-03T12:40:46.843Z,112.50
2018-08-03T12:42:40.218Z,112.50
2018-08-03T12:43:41.091Z,112.50
2018-08-03T12:45:34.279Z,112.50
2018-08-03T12:46:32.888Z,112.50
2018-08-03T12:48:26.340Z,112.50
2018-08-03T12:49:26.861Z,112.50
2018-08-03T12:51:19.687Z,106.88
2018-08-03T12:52:19.693Z,106.88
2018-08-03T12:54:12.909Z,106.88
2018-08-03T12:55:12.602Z,106.88
2018-08-03T12:57:08.818Z,106.88
2018-08-03T12:58:08.472Z,106.88
2018-08-03T13:00:02.803Z,106.88
2018-08-03T13:01:01.882Z,106.88
2018-08-03T13:02:55.608Z,101.25
2018-08-03T13:03:54.788Z,101.25
2018-08-03T13:05:48.506Z,101.25
2018-08-03T13:06:48.197Z,101.25
2018-08-03T13:08:41.487Z,101.25
2018-08-03T13:09:41.061Z,101.25
2018-08-03T13:11:35.185Z,101.25
2018-08-03T13:12:35.220Z,101.25
2018-08-03T13:14:29.191Z,101.25
2018-08-03T13:15:28.510Z,101.25
2018-08-03T13:17:21.979Z,101.25
2018-08-03T13:18:21.950Z,101.25
2018-08-03T13:20:14.882Z,101.25
2018-08-03T13:21:14.560Z,101.25
2018-08-03T13:23:08.876Z,101.25
2018-08-03T13:24:08.373Z,101.25
2018-08-03T13:26:01.744Z,101.25
2018-08-03T13:27:01.710Z,101.25
2018-08-03T13:28:54.526Z,101.25
2018-08-03T13:29:54.579Z,101.25
2018-08-03T13:31:47.981Z,101.25
2018-08-03T13:32:47.638Z,101.25
2018-08-03T13:34:41.071Z,101.25
2018-08-03T13:35:41.040Z,101.25
2018-08-03T13:37:34.467Z,101.25
2018-08-03T13:38:34.436Z,101.25
2018-08-03T13:40:27.853Z,101.25
2018-08-03T13:41:27.838Z,95.63
2018-08-03T13:43:21.051Z,101.25
2018-08-03T13:44:20.774Z,101.25
2018-08-03T13:46:15.181Z,95.63
2018-08-03T13:47:15.138Z,95.63
2018-08-03T13:49:08.188Z,95.63
2018-08-03T13:50:08.065Z,95.63
2018-08-03T13:52:02.021Z,95.63
2018-08-03T13:53:02.274Z,95.63
2018-08-03T13:54:55.432Z,95.63
2018-08-03T13:55:55.402Z,95.63
2018-08-03T13:57:48.483Z,95.63
2018-08-03T13:58:48.317Z,95.63
2018-08-03T14:00:42.694Z,95.63
2018-08-03T14:01:41.687Z,90.00
2018-08-03T14:03:35.404Z,90.00
2018-08-03T14:04:35.352Z,84.38
2018-08-03T14:06:28.508Z,90.00
2018-08-03T14:07:28.505Z,90.00
2018-08-03T14:09:22.050Z,90.00
2018-08-03T14:10:21.895Z,90.00
2018-08-03T14:12:15.556Z,90.00
2018-08-03T14:13:15.292Z,90.00
2018-08-03T14:15:08.215Z,90.00
2018-08-03T14:16:08.224Z,90.00
2018-08-03T14:18:01.426Z,90.00
2018-08-03T14:19:01.459Z,90.00
2018-08-03T14:20:54.717Z,90.00
2018-08-03T14:21:55.060Z,90.00
2018-08-03T14:23:47.376Z,90.00
2018-08-03T14:24:47.281Z,90.00
2018-08-03T14:26:43.613Z,90.00
2018-08-03T14:27:40.885Z,90.00
2018-08-03T14:29:34.133Z,90.00
2018-08-03T14:30:34.187Z,90.00
2018-08-03T14:32:27.778Z,90.00
2018-08-03T14:33:27.511Z,90.00
2018-08-03T14:35:22.949Z,90.00
2018-08-03T14:36:22.448Z,90.00
2018-08-03T14:38:14.960Z,84.38
2018-08-03T14:39:14.892Z,84.38
2018-08-03T14:41:07.969Z,84.38
2018-08-03T14:42:07.839Z,84.38
2018-08-03T14:44:01.411Z,84.38
2018-08-03T14:45:01.206Z,84.38
2018-08-03T14:46:54.630Z,84.38
2018-08-03T14:47:54.617Z,84.38
2018-08-03T14:49:47.565Z,84.38
2018-08-03T14:50:47.714Z,84.38
2018-08-03T14:52:41.007Z,84.38
2018-08-03T14:53:40.918Z,84.38
2018-08-03T14:55:34.332Z,84.38
2018-08-03T14:56:34.323Z,84.38
2018-08-03T14:58:27.873Z,84.38
2018-08-03T14:59:27.744Z,84.38
2018-08-03T15:01:21.146Z,84.38
2018-08-03T15:02:21.667Z,84.38
2018-08-03T15:04:15.118Z,84.38
2018-08-03T15:05:14.029Z,84.38
2018-08-03T15:07:06.956Z,84.38
2018-08-03T15:08:07.029Z,84.38
2018-08-03T15:13:10.892Z,84.38
2018-08-03T15:14:11.042Z,78.75
2018-08-03T15:16:04.385Z,78.75
2018-08-03T15:17:04.261Z,78.75
2018-08-03T15:18:57.316Z,78.75
2018-08-03T15:19:57.161Z,78.75
2018-08-03T15:21:51.605Z,78.75
2018-08-03T15:22:51.553Z,78.75
2018-08-03T15:24:44.538Z,78.75
2018-08-03T15:25:44.453Z,78.75
2018-08-03T15:27:38.586Z,78.75
2018-08-03T15:28:38.436Z,78.75
2018-08-03T15:30:31.987Z,78.75
2018-08-03T15:31:31.826Z,78.75
2018-08-03T15:33:24.743Z,78.75
2018-08-03T15:34:24.742Z,78.75
2018-08-03T15:36:18.124Z,78.75
2018-08-03T15:37:18.124Z,78.75
2018-08-03T15:39:11.594Z,78.75
2018-08-03T15:40:11.535Z,78.75
2018-08-03T15:42:04.452Z,78.75
2018-08-03T15:43:04.622Z,78.75
2018-08-03T15:44:57.387Z,78.75
2018-08-03T15:45:57.400Z,78.75
2018-08-03T15:47:50.238Z,78.75
2018-08-03T15:48:50.251Z,78.75
2018-08-03T15:50:44.177Z,78.75
2018-08-03T15:51:43.620Z,78.75
2018-08-03T15:53:36.532Z,78.75
2018-08-03T15:54:36.538Z,78.75
2018-08-03T15:56:29.434Z,78.75
2018-08-03T15:57:29.431Z,78.75
2018-08-03T15:59:22.892Z,78.75
2018-08-03T16:00:22.327Z,78.75
2018-08-03T16:02:15.744Z,78.75
2018-08-03T16:03:15.730Z,78.75
2018-08-03T16:05:08.706Z,78.75
2018-08-03T16:06:08.646Z,78.75
2018-08-03T16:08:01.569Z,78.75
2018-08-03T16:09:01.559Z,73.13
2018-08-03T16:10:55.080Z,73.13
2018-08-03T16:11:54.969Z,73.13
2018-08-03T16:13:48.580Z,73.13
2018-08-03T16:14:48.371Z,73.13
2018-08-03T16:16:42.010Z,73.13
2018-08-03T16:17:41.759Z,73.13
2018-08-03T16:19:35.308Z,73.13
2018-08-03T16:20:35.178Z,73.13
2018-08-03T16:22:28.792Z,73.13
2018-08-03T16:23:28.542Z,73.13
2018-08-03T16:25:21.950Z,73.13
2018-08-03T16:26:21.932Z,73.13
2018-08-03T16:28:14.842Z,73.13
2018-08-03T16:29:14.825Z,73.13
2018-08-03T16:31:07.889Z,73.13
2018-08-03T16:32:07.742Z,73.13
2018-08-03T16:34:01.266Z,73.13
2018-08-03T16:35:01.126Z,73.13
2018-08-03T16:36:54.652Z,73.13
2018-08-03T16:37:54.516Z,73.13
2018-08-03T16:39:48.053Z,67.50
2018-08-03T16:40:47.910Z,67.50
2018-08-03T16:42:41.543Z,67.50
2018-08-03T16:43:41.307Z,67.50
2018-08-03T16:45:34.278Z,67.50
2018-08-03T16:46:34.233Z,67.50
2018-08-03T16:48:27.133Z,67.50
2018-08-03T16:49:27.114Z,67.50
2018-08-03T16:51:20.535Z,67.50
2018-08-03T16:52:21.069Z,67.50
2018-08-03T16:54:13.915Z,67.50
2018-08-03T16:55:13.902Z,67.50
2018-08-03T16:57:06.804Z,67.50
2018-08-03T16:58:06.800Z,61.88
2018-08-03T16:59:59.919Z,61.88
2018-08-03T17:00:59.803Z,61.88
2018-08-03T17:02:52.800Z,61.88
2018-08-03T17:03:52.717Z,61.88
2018-08-03T17:05:47.209Z,61.88
2018-08-03T17:06:46.101Z,61.88
2018-08-03T17:08:39.639Z,61.88
2018-08-03T17:09:39.488Z,61.88
2018-08-03T17:11:32.399Z,61.88
2018-08-03T17:12:32.392Z,61.88
2018-08-03T17:14:25.791Z,56.25
2018-08-03T17:15:25.785Z,56.25
2018-08-03T17:17:19.232Z,56.25
2018-08-03T17:18:19.181Z,56.25
2018-08-03T17:20:12.622Z,56.25
2018-08-03T17:21:12.582Z,56.25
2018-08-03T17:23:05.990Z,56.25
2018-08-03T17:24:05.966Z,56.25
2018-08-03T17:25:58.939Z,56.25
2018-08-03T17:26:58.871Z,56.25
2018-08-03T17:28:53.288Z,56.25
2018-08-03T17:29:53.288Z,56.25
2018-08-03T17:31:46.190Z,56.25
2018-08-03T17:32:46.172Z,56.25
2018-08-03T17:34:39.816Z,50.63
2018-08-03T17:35:39.569Z,50.63
2018-08-03T17:37:32.985Z,50.63
2018-08-03T17:38:33.508Z,50.63
2018-08-03T17:40:26.961Z,50.63
2018-08-03T17:41:26.372Z,50.63
2018-08-03T17:43:19.639Z,50.63
2018-08-03T17:44:19.324Z,50.63
2018-08-03T17:46:12.264Z,50.63
2018-08-03T17:47:12.217Z,45.00
2018-08-03T17:49:06.105Z,45.00
2018-08-03T17:50:05.611Z,45.00
2018-08-03T17:51:58.606Z,45.00
2018-08-03T17:52:58.498Z,45.00
2018-08-03T17:54:51.575Z,45.00
2018-08-03T17:55:51.401Z,45.00
2018-08-03T17:57:44.811Z,45.00
2018-08-03T17:58:44.786Z,39.38
2018-08-03T18:00:37.708Z,39.38
2018-08-03T18:01:37.692Z,39.38
2018-08-03T18:03:31.229Z,39.38
2018-08-03T18:04:31.083Z,39.38
2018-08-03T18:06:24.021Z,39.38
2018-08-03T18:07:24.006Z,39.38
2018-08-03T18:09:17.480Z,33.75
2018-08-03T18:10:17.406Z,33.75
2018-08-03T18:12:10.973Z,33.75
2018-08-03T18:13:10.801Z,33.75
2018-08-03T18:15:03.854Z,33.75
2018-08-03T18:16:03.707Z,33.75
2018-08-03T18:17:59.499Z,28.13
2018-08-03T18:18:57.651Z,28.13
2018-08-03T18:20:51.155Z,28.13
2018-08-03T18:21:51.653Z,28.13
2018-08-03T18:23:44.429Z,28.13
2018-08-03T18:24:44.427Z,28.13
2018-08-03T18:26:37.626Z,28.13
2018-08-03T18:27:37.347Z,22.50
2018-08-03T18:29:30.740Z,22.50
2018-08-03T18:30:30.724Z,22.50
2018-08-03T18:32:25.140Z,22.50
2018-08-03T18:33:25.116Z,22.50
2018-08-03T18:35:19.567Z,22.50
2018-08-03T18:36:19.500Z,22.50
2018-08-03T18:38:13.715Z,16.88
2018-08-03T18:39:13.473Z,16.88
2018-08-03T18:41:06.936Z,16.88
2018-08-03T18:42:06.921Z,16.88
2018-08-03T18:43:59.934Z,16.88
2018-08-03T18:44:59.927Z,16.88
2018-08-03T18:46:53.356Z,16.88
2018-08-03T18:47:53.626Z,11.25
2018-08-03T18:49:47.117Z,11.25
2018-08-03T18:50:46.855Z,11.25
2018-08-03T18:52:41.418Z,11.25
2018-08-03T18:53:39.175Z,11.25
2018-08-03T18:55:32.243Z,11.25
2018-08-03T18:56:32.066Z,11.25
2018-08-03T18:58:25.782Z,5.63
2018-08-03T18:59:25.450Z,5.63
2018-08-03T19:01:19.080Z,5.63
2018-08-03T19:02:18.802Z,5.63
2018-08-03T19:04:11.958Z,5.63
2018-08-03T19:05:11.749Z,5.63
2018-08-03T19:07:05.986Z,5.63
2018-08-03T19:08:05.101Z,5.63
2018-08-03T19:09:58.523Z,0.00
2018-08-03T19:10:58.503Z,0.00
2018-08-03T19:12:55.657Z,0.00
2018-08-03T19:13:52.448Z,0.00
2018-08-03T19:15:46.412Z,0.00
2018-08-03T19:16:45.824Z,0.00
2018-08-03T19:18:40.281Z,0.00
2018-08-03T19:19:40.246Z,0.00
2018-08-03T19:21:33.631Z,0.00
2018-08-03T19:22:33.607Z,0.00
2018-08-03T19:24:26.787Z,0.00
2018-08-03T19:25:26.528Z,0.00
2018-08-03T19:27:19.680Z,0.00
2018-08-03T19:28:19.387Z,0.00
2018-08-03T19:30:12.314Z,0.00
2018-08-03T19:31:12.304Z,0.00
2018-08-03T19:33:05.965Z,0.00
2018-08-03T19:34:06.735Z,0.00
2018-08-03T19:35:58.712Z,0.00
2018-08-03T19:36:58.706Z,0.00
2018-08-03T19:38:52.372Z,0.00
2018-08-03T19:39:52.080Z,0.00
2018-08-03T19:41:45.696Z,0.00
2018-08-03T19:42:45.455Z,0.00
2018-08-03T19:44:38.914Z,0.00
2018-08-03T19:45:38.833Z,0.00
2018-08-03T19:47:32.480Z,0.00
2018-08-03T19:48:32.233Z,0.00
2018-08-03T19:50:26.925Z,0.00
2018-08-03T19:51:26.651Z,0.00
2018-08-03T19:53:20.218Z,0.00
2018-08-03T19:54:20.030Z,0.00
2018-08-03T19:56:13.981Z,0.00
2018-08-03T19:57:13.966Z,0.00
2018-08-03T19:59:07.543Z,0.00
2018-08-03T20:00:07.346Z,0.00
2018-08-03T20:02:00.580Z,0.00
2018-08-03T20:03:00.237Z,0.00
2018-08-03T20:04:54.428Z,0.00
2018-08-03T20:05:53.635Z,0.00
2018-08-03T20:07:47.354Z,0.00
2018-08-03T20:08:47.298Z,0.00
2018-08-03T20:10:41.021Z,0.00
2018-08-03T20:11:40.978Z,0.00
2018-08-03T20:13:34.795Z,0.00
2018-08-03T20:14:34.418Z,0.00
2018-08-03T20:16:28.104Z,0.00
2018-08-03T20:17:27.775Z,0.00
2018-08-03T20:19:21.491Z,0.00
2018-08-03T20:20:21.720Z,0.00
2018-08-03T20:22:14.892Z,0.00
2018-08-03T20:23:14.536Z,0.00
2018-08-03T20:25:08.301Z,0.00
2018-08-03T20:26:07.975Z,0.00
2018-08-03T20:28:01.157Z,0.00
2018-08-03T20:29:01.669Z,0.00
2018-08-03T20:30:54.318Z,0.00
2018-08-03T20:31:56.660Z,0.00
2018-08-03T20:33:48.953Z,0.00
2018-08-03T20:34:47.281Z,0.00
2018-08-03T20:36:40.888Z,0.00
2018-08-03T20:37:40.533Z,0.00
2018-08-03T20:39:34.190Z,0.00
2018-08-03T20:40:34.463Z,0.00
2018-08-03T20:42:27.576Z,0.00
2018-08-03T20:43:27.315Z,0.00
2018-08-03T20:45:20.958Z,0.00
2018-08-03T20:46:20.704Z,0.00
2018-08-03T20:48:15.899Z,0.00
2018-08-03T20:49:16.973Z,0.00
2018-08-03T20:51:07.721Z,0.00
2018-08-03T20:52:07.493Z,0.00
2018-08-03T20:54:03.490Z,0.00
2018-08-03T20:55:03.636Z,0.00
2018-08-03T20:56:56.657Z,0.00
2018-08-03T20:57:56.585Z,0.00
2018-08-03T20:59:50.115Z,0.00
2018-08-03T21:00:49.938Z,0.00
2018-08-03T21:02:45.629Z,0.00
2018-08-03T21:03:43.423Z,0.00
2018-08-03T21:05:36.780Z,0.00
2018-08-03T21:06:36.457Z,0.00
2018-08-03T21:08:29.679Z,0.00
2018-08-03T21:09:29.602Z,0.00
2018-08-03T21:11:22.329Z,0.00
2018-08-03T21:12:23.142Z,0.00
2018-08-03T21:14:16.704Z,0.00
2018-08-03T21:15:15.648Z,0.00
2018-08-03T21:17:10.067Z,0.00
2018-08-03T21:18:10.037Z,0.00
2018-08-03T21:20:03.734Z,0.00
2018-08-03T21:21:03.771Z,0.00
2018-08-03T21:22:56.643Z,0.00
2018-08-03T21:23:56.926Z,0.00
2018-08-03T21:25:50.015Z,0.00
2018-08-03T21:26:49.722Z,0.00
2018-08-03T21:28:43.520Z,0.00
2018-08-03T21:29:42.637Z,0.00
2018-08-03T21:31:35.778Z,0.00
2018-08-03T21:32:35.541Z,0.00
2018-08-03T21:34:29.234Z,0.00
2018-08-03T21:35:28.397Z,0.00
2018-08-03T21:37:21.595Z,0.00
2018-08-03T21:38:21.330Z,0.00
2018-08-03T21:40:14.478Z,0.00
2018-08-03T21:41:14.193Z,0.00
2018-08-03T21:43:07.118Z,0.00
2018-08-03T21:44:07.634Z,0.00
2018-08-03T21:46:00.816Z,0.00
2018-08-03T21:47:00.827Z,0.00
2018-08-03T21:48:55.176Z,0.00
2018-08-03T21:49:55.517Z,0.00
2018-08-03T21:51:48.112Z,0.00
2018-08-03T21:52:47.838Z,0.00
2018-08-03T21:54:41.509Z,0.00
2018-08-03T21:55:41.184Z,0.00
2018-08-03T21:57:34.498Z,0.00
2018-08-03T21:58:34.198Z,0.00
2018-08-03T22:00:27.921Z,0.00
2018-08-03T22:01:28.168Z,0.00
2018-08-03T22:03:20.849Z,0.00
2018-08-03T22:04:20.778Z,0.00
2018-08-03T22:06:13.706Z,0.00
2018-08-03T22:07:13.686Z,0.00
2018-08-03T22:09:07.700Z,0.00
2018-08-03T22:10:07.081Z,0.00
2018-08-03T22:12:00.602Z,0.00
2018-08-03T22:13:00.204Z,0.00
2018-08-03T22:14:54.426Z,0.00
2018-08-03T22:15:54.493Z,0.00
2018-08-03T22:17:46.515Z,0.00
2018-08-03T22:18:46.528Z,0.00
2018-08-03T22:20:40.447Z,0.00
2018-08-03T22:21:39.896Z,0.00
2018-08-03T22:23:33.527Z,0.00
2018-08-03T22:24:33.384Z,0.00
2018-08-03T22:26:26.842Z,0.00
2018-08-03T22:27:26.676Z,0.00
2018-08-03T22:29:20.392Z,0.00
2018-08-03T22:30:20.092Z,0.00
2018-08-03T22:32:14.480Z,0.00
2018-08-03T22:33:15.324Z,0.00
2018-08-03T22:35:08.767Z,0.00
2018-08-03T22:36:07.844Z,0.00
2018-08-03T22:38:01.531Z,0.00
2018-08-03T22:39:01.260Z,0.00
2018-08-03T22:40:54.472Z,0.00
2018-08-03T22:41:54.457Z,0.00
2018-08-03T22:43:47.822Z,0.00
2018-08-03T22:44:47.860Z,0.00
2018-08-03T22:46:41.250Z,0.00
2018-08-03T22:47:41.035Z,0.00
2018-08-03T22:49:34.628Z,0.00
2018-08-03T22:50:34.340Z,0.00
2018-08-03T22:52:33.128Z,0.00
2018-08-03T22:53:27.717Z,0.00
2018-08-03T22:55:21.961Z,0.00
2018-08-03T22:56:21.090Z,0.00
2018-08-03T22:58:15.372Z,0.00
2018-08-03T22:59:14.463Z,0.00
2018-08-03T23:01:12.916Z,0.00
2018-08-03T23:02:12.404Z,0.00
2018-08-03T23:04:06.101Z,0.00
2018-08-03T23:05:05.775Z,0.00
2018-08-03T23:06:59.989Z,0.00
2018-08-03T23:07:59.437Z,0.00
2018-08-03T23:09:53.109Z,0.00
2018-08-03T23:10:52.317Z,0.00
2018-08-03T23:12:45.807Z,0.00
2018-08-03T23:13:45.821Z,0.00
2018-08-03T23:15:39.177Z,0.00
2018-08-03T23:16:38.847Z,0.00
2018-08-03T23:18:32.565Z,0.00
2018-08-03T23:19:32.233Z,0.00
2018-08-03T23:21:25.947Z,0.00
2018-08-03T23:22:25.615Z,0.00
2018-08-03T23:24:19.405Z,0.00
2018-08-03T23:25:19.016Z,0.00
2018-08-03T23:27:11.914Z,0.00
2018-08-03T23:28:12.206Z,0.00
2018-08-03T23:30:05.682Z,0.00
2018-08-03T23:31:05.103Z,0.00
2018-08-03T23:33:00.100Z,0.00
2018-08-03T23:33:59.508Z,0.00
2018-08-03T23:35:52.866Z,0.00
2018-08-03T23:36:52.565Z,0.00
2018-08-03T23:38:47.314Z,0.00
2018-08-03T23:39:45.957Z,0.00
2018-08-03T23:41:40.453Z,0.00
2018-08-03T23:42:39.652Z,0.00
2018-08-03T23:44:36.772Z,0.00
2018-08-03T23:45:35.492Z,0.00
2018-08-03T23:47:28.130Z,0.00
2018-08-03T23:48:28.112Z,0.00
2018-08-03T23:50:21.327Z,0.00
2018-08-03T23:51:21.276Z,0.00
2018-08-03T23:53:14.697Z,0.00
2018-08-03T23:54:14.683Z,0.00
2018-08-03T23:56:08.674Z,0.00
2018-08-03T23:57:08.037Z,0.00
2018-08-03T23:59:01.531Z,0.00
